Time;durP1;ratioP1;P1;durP2;ratioP2;P2;SDS_P1;SDS_P2;PMS_P1;PMS_P2;Temp;Humidity;BMP_temperature;BMP_pressure;BME280_temperature;BME280_humidity;BME280_pressure;Samples;Min_cycle;Max_cycle;Signal;HPM_P1;HPM_P2
2022/05/28 00:01:20;;;;;;;7.15;4.88;;;512.90;2380.80;;;;;;5010828;28;20022;-53
2022/05/28 00:03:47;;;;;;;5.50;4.50;;;512.90;2380.80;;;;;;5010986;28;20034;-52
2022/05/28 00:06:18;;;;;;;7.80;4.63;;;537.60;2406.40;;;;;;5001096;28;20079;-53
2022/05/28 00:08:44;;;;;;;5.68;4.18;;;537.60;2406.40;;;;;;5019674;28;20384;-52
2022/05/28 00:11:18;;;;;;;7.13;4.68;;;512.90;2380.80;;;;;;5018285;28;20028;-54
2022/05/28 00:13:44;;;;;;;9.48;5.00;;;512.90;2380.80;;;;;;5014061;28;20547;-53
2022/05/28 00:16:11;;;;;;;5.57;4.35;;;512.90;2380.80;;;;;;5012501;28;20084;-54
2022/05/28 00:18:39;;;;;;;6.95;4.97;;;512.90;2380.80;;;;;;5019715;28;20026;-53
2022/05/28 00:21:08;;;;;;;5.53;4.43;;;512.90;2380.80;;;;;;5013258;28;20165;-53
2022/05/28 00:23:36;;;;;;;8.43;4.63;;;537.60;2406.40;;;;;;5008770;28;20096;-53
2022/05/28 00:26:03;;;;;;;6.40;5.00;;;537.60;2406.40;;;;;;5017305;28;20062;-54
2022/05/28 00:28:29;;;;;;;7.45;5.47;;;512.90;2380.80;;;;;;5009974;28;20026;-54
2022/05/28 00:30:55;;;;;;;6.10;5.13;;;512.90;2380.80;;;;;;5014067;28;20032;-52
2022/05/28 00:33:22;;;;;;;7.47;5.70;;;512.70;2380.80;;;;;;5017235;28;20030;-53
2022/05/28 00:35:49;;;;;;;8.70;5.13;;;512.70;2380.80;;;;;;4991702;28;20069;-55
2022/05/28 00:38:15;;;;;;;9.48;5.28;;;512.80;2380.80;;;;;;5014060;28;20034;-53
2022/05/28 00:40:46;;;;;;;10.43;7.05;;;512.70;2380.80;;;;;;5015935;28;20030;-55
2022/05/28 00:43:12;;;;;;;9.48;5.10;;;512.60;2380.80;;;;;;5019113;28;20034;-54
2022/05/28 00:45:38;;;;;;;6.75;5.32;;;512.50;2380.80;;;;;;5016408;28;20091;-53
2022/05/28 00:48:05;;;;;;;8.05;5.47;;;512.50;2380.80;;;;;;5019325;28;20033;-53
2022/05/28 00:50:33;;;;;;;10.75;5.20;;;512.50;2380.80;;;;;;5029871;28;20026;-54
2022/05/28 00:52:58;;;;;;;7.78;5.55;;;512.30;2380.80;;;;;;5029973;28;20032;-54
2022/05/28 00:55:24;;;;;;;8.18;5.85;;;512.10;2380.80;;;;;;5029774;28;20029;-54
2022/05/28 00:57:50;;;;;;;7.78;6.25;;;487.20;2380.80;;;;;;5030022;28;20036;-53
2022/05/28 01:00:19;;;;;;;8.32;6.03;;;487.10;2380.80;;;;;;5030120;28;20034;-52
2022/05/28 01:02:51;;;;;;;8.77;6.03;;;487.00;2380.80;;;;;;5029741;28;20059;-52
2022/05/28 01:05:29;;;;;;;5.85;4.97;;;486.90;2380.80;;;;;;5029865;28;20068;-54
2022/05/28 01:08:13;;;;;;;9.82;5.15;;;486.80;2380.80;;;;;;5029817;28;20013;-54
2022/05/28 01:10:50;;;;;;;6.82;4.97;;;487.00;2380.80;;;;;;5029455;28;20025;-53
2022/05/28 01:13:41;;;;;;;6.25;5.10;;;487.00;2380.80;;;;;;5012077;28;20384;-54
2022/05/28 01:16:21;;;;;;;8.40;6.28;;;487.10;2380.80;;;;;;5030027;28;20029;-54
2022/05/28 01:19:19;;;;;;;6.82;5.20;;;487.10;2380.80;;;;;;5029998;28;20034;-54
2022/05/28 01:22:11;;;;;;;8.88;6.05;;;487.20;2380.80;;;;;;5022415;28;20472;-52
2022/05/28 01:24:37;;;;;;;6.43;4.88;;;487.20;2380.80;;;;;;5008740;28;20124;-54
2022/05/28 01:27:29;;;;;;;9.27;5.80;;;487.10;2380.80;;;;;;5013347;28;20477;-54
2022/05/28 01:29:58;;;;;;;7.93;5.88;;;487.00;2380.80;;;;;;5003080;28;20073;-53
2022/05/28 01:32:26;;;;;;;7.50;5.40;;;486.90;2380.80;;;;;;5007546;28;20026;-55
2022/05/28 01:34:54;;;;;;;11.18;6.13;;;486.70;2380.80;;;;;;5011286;28;20088;-55
2022/05/28 01:37:21;;;;;;;7.30;5.00;;;486.50;2380.80;;;;;;5014037;28;20030;-54
2022/05/28 01:39:49;;;;;;;6.97;5.78;;;486.40;2380.80;;;;;;5013380;28;20049;-53
2022/05/28 01:42:16;;;;;;;9.48;6.32;;;461.70;2380.80;;;;;;5013430;28;20478;-55
2022/05/28 01:44:44;;;;;;;7.75;5.15;;;461.50;2380.80;;;;;;5013292;28;20096;-53
2022/05/28 01:47:12;;;;;;;8.50;5.75;;;461.40;2380.80;;;;;;5013379;28;20485;-54
2022/05/28 01:49:39;;;;;;;7.82;5.93;;;461.40;2380.80;;;;;;5013336;28;20041;-54
2022/05/28 01:52:06;;;;;;;9.30;4.68;;;461.40;2380.80;;;;;;5013660;28;20375;-53
2022/05/28 01:54:36;;;;;;;10.85;5.45;;;461.40;2380.80;;;;;;5012955;28;20030;-53
2022/05/28 01:57:03;;;;;;;6.95;4.40;;;461.30;2380.80;;;;;;5013018;28;20033;-53
2022/05/28 01:59:33;;;;;;;6.47;4.22;;;461.20;2380.80;;;;;;5013158;28;20037;-55
2022/05/28 02:02:02;;;;;;;12.23;5.45;;;461.20;2380.80;;;;;;5013385;28;20110;-53
2022/05/28 02:04:30;;;;;;;8.05;5.10;;;461.10;2380.80;;;;;;5013129;28;20472;-54
2022/05/28 02:06:55;;;;;;;7.65;4.65;;;461.00;2380.80;;;;;;5012496;28;20068;-54
2022/05/28 02:09:24;;;;;;;8.15;5.53;;;461.00;2380.80;;;;;;5012814;28;20062;-54
2022/05/28 02:12:11;;;;;;;7.60;5.40;;;460.90;2380.80;;;;;;5012863;28;20054;-53
2022/05/28 02:15:06;;;;;;;9.98;4.65;;;461.00;2380.80;;;;;;5012745;28;20026;-53
2022/05/28 02:17:47;;;;;;;10.23;5.00;;;460.90;2380.80;;;;;;5012878;28;20469;-53
2022/05/28 02:20:39;;;;;;;8.45;5.45;;;460.90;2380.80;;;;;;5012624;28;20030;-54
2022/05/28 02:23:04;;;;;;;7.47;4.53;;;461.10;2380.80;;;;;;4913773;29;20558;-54
2022/05/28 02:25:41;;;;;;;9.27;4.88;;;461.10;2380.80;;;;;;4913949;29;20139;-54
2022/05/28 02:28:09;;;;;;;6.32;3.70;;;461.30;2380.80;;;;;;4914230;29;20036;-53
2022/05/28 02:31:02;;;;;;;6.72;3.90;;;461.20;2380.80;;;;;;4913939;29;20028;-54
2022/05/28 02:33:32;;;;;;;6.20;4.40;;;461.40;2380.80;;;;;;4913689;29;20036;-53
2022/05/28 02:35:58;;;;;;;6.13;4.13;;;461.30;2380.80;;;;;;4914190;29;20159;-52
2022/05/28 02:38:23;;;;;;;6.75;4.65;;;461.40;2380.80;;;;;;4913888;29;20028;-53
2022/05/28 02:40:49;;;;;;;7.15;4.45;;;461.50;2380.80;;;;;;4913755;29;20173;-53
2022/05/28 02:43:15;;;;;;;7.55;5.45;;;461.40;2380.80;;;;;;4913612;29;20055;-53
2022/05/28 02:45:41;;;;;;;9.00;5.00;;;461.20;2380.80;;;;;;4913922;29;20444;-53
2022/05/28 02:48:07;;;;;;;7.90;4.68;;;461.10;2380.80;;;;;;4913919;29;20036;-53
2022/05/28 02:50:33;;;;;;;8.40;4.50;;;461.10;2380.80;;;;;;4913547;29;20024;-53
2022/05/28 02:52:59;;;;;;;6.75;4.63;;;461.20;2380.80;;;;;;4913689;29;20032;-54
2022/05/28 02:55:25;;;;;;;7.85;4.70;;;461.30;2380.80;;;;;;4913526;29;20650;-54
2022/05/28 02:57:51;;;;;;;7.93;5.50;;;461.30;2380.80;;;;;;4913518;29;20052;-55
2022/05/28 03:00:17;;;;;;;6.93;5.05;;;461.40;2380.80;;;;;;4962156;28;20052;-53
2022/05/28 03:02:44;;;;;;;5.80;4.00;;;461.40;2380.80;;;;;;4992271;28;20019;-53
2022/05/28 03:05:15;;;;;;;7.72;4.13;;;461.50;2380.80;;;;;;4992477;28;20030;-53
2022/05/28 03:07:41;;;;;;;6.28;4.10;;;461.50;2380.80;;;;;;4992123;28;20100;-53
2022/05/28 03:10:07;;;;;;;7.47;4.57;;;461.50;2380.80;;;;;;4992566;28;20022;-54
2022/05/28 03:12:33;;;;;;;5.70;3.90;;;461.40;2380.80;;;;;;4992003;28;20061;-54
2022/05/28 03:14:58;;;;;;;8.40;4.50;;;461.40;2380.80;;;;;;4992379;28;20042;-54
2022/05/28 03:17:24;;;;;;;7.93;4.55;;;461.40;2380.80;;;;;;4992079;28;20050;-54
2022/05/28 03:19:50;;;;;;;7.07;4.85;;;461.40;2380.80;;;;;;4991823;28;20042;-53
2022/05/28 03:22:16;;;;;;;7.05;4.85;;;461.40;2380.80;;;;;;4992073;28;20049;-54
2022/05/28 03:24:42;;;;;;;9.20;4.15;;;461.50;2380.80;;;;;;4991664;28;20034;-54
2022/05/28 03:27:07;;;;;;;11.05;4.90;;;461.50;2380.80;;;;;;4991924;28;20134;-53
2022/05/28 03:29:33;;;;;;;8.32;4.43;;;461.60;2380.80;;;;;;4991841;28;20034;-54
2022/05/28 03:31:59;;;;;;;6.32;4.35;;;461.70;2380.80;;;;;;4992080;28;20022;-54
2022/05/28 03:34:24;;;;;;;7.93;4.20;;;461.70;2380.80;;;;;;4991699;28;20138;-54
2022/05/28 03:36:50;;;;;;;5.95;4.45;;;461.70;2380.80;;;;;;4992045;28;20026;-54
2022/05/28 03:39:16;;;;;;;5.70;4.03;;;486.40;2380.80;;;;;;4991885;28;20038;-55
2022/05/28 03:41:42;;;;;;;7.20;4.25;;;486.50;2380.80;;;;;;4991151;28;20059;-53
2022/05/28 03:44:08;;;;;;;6.13;4.32;;;486.50;2380.80;;;;;;4990511;28;20031;-53
2022/05/28 03:46:35;;;;;;;6.20;4.65;;;486.50;2380.80;;;;;;4991375;28;20377;-53
2022/05/28 03:49:12;;;;;;;7.18;3.90;;;486.60;2380.80;;;;;;4991370;28;20054;-54
2022/05/28 03:51:38;;;;;;;6.63;4.40;;;486.70;2380.80;;;;;;4991819;28;20026;-55
2022/05/28 03:54:04;;;;;;;4.93;3.97;;;486.70;2380.80;;;;;;4991222;28;20113;-53
2022/05/28 03:56:36;;;;;;;5.18;3.88;;;486.80;2380.80;;;;;;4990811;28;20030;-55
2022/05/28 03:59:03;;;;;;;6.25;3.78;;;486.90;2380.80;;;;;;4991218;28;20034;-53
2022/05/28 04:01:29;;;;;;;6.55;3.47;;;486.90;2380.80;;;;;;4991633;28;20014;-53
2022/05/28 04:03:54;;;;;;;5.93;3.90;;;486.90;2380.80;;;;;;4991396;28;20041;-53
2022/05/28 04:06:20;;;;;;;5.75;3.40;;;487.00;2380.80;;;;;;4991234;28;20393;-53
2022/05/28 04:08:46;;;;;;;6.47;4.57;;;487.00;2380.80;;;;;;4991265;28;20166;-54
2022/05/28 04:11:13;;;;;;;5.78;3.95;;;487.00;2380.80;;;;;;4991093;28;20109;-52
2022/05/28 04:13:38;;;;;;;6.95;4.07;;;487.10;2380.80;;;;;;4991223;28;20026;-54
2022/05/28 04:16:04;;;;;;;6.18;4.10;;;487.10;2380.80;;;;;;4991227;28;20358;-54
2022/05/28 04:18:30;;;;;;;7.00;4.57;;;487.10;2380.80;;;;;;4993540;28;20030;-54
2022/05/28 04:20:56;;;;;;;5.38;3.83;;;487.30;2380.80;;;;;;4990918;28;20400;-54
2022/05/28 04:23:22;;;;;;;5.35;3.78;;;512.00;2380.80;;;;;;4990674;28;20473;-54
2022/05/28 04:25:47;;;;;;;5.88;3.83;;;512.10;2380.80;;;;;;4999419;28;20054;-54
2022/05/28 04:28:13;;;;;;;6.47;3.20;;;512.30;2380.80;;;;;;5010303;28;20018;-53
2022/05/28 04:30:39;;;;;;;5.55;3.85;;;512.50;2380.80;;;;;;5010605;28;20038;-53
2022/05/28 04:33:05;;;;;;;6.40;3.70;;;512.70;2380.80;;;;;;5010362;28;20525;-54
2022/05/28 04:35:31;;;;;;;4.45;2.85;;;512.90;2380.80;;;;;;5010247;28;20033;-55
2022/05/28 04:37:57;;;;;;;8.35;3.55;;;537.80;2406.40;;;;;;5010528;28;20022;-54
2022/05/28 04:40:23;;;;;;;6.15;3.40;;;538.00;2406.40;;;;;;5010464;28;20045;-54
2022/05/28 04:42:49;;;;;;;6.07;4.15;;;538.20;2406.40;;;;;;5010382;28;20076;-53
2022/05/28 04:45:15;;;;;;;8.18;3.42;;;538.20;2406.40;;;;;;5010186;28;20030;-53
2022/05/28 04:47:40;;;;;;;6.85;3.88;;;538.30;2406.40;;;;;;5010330;28;20025;-54
2022/05/28 04:50:07;;;;;;;6.13;4.13;;;538.50;2406.40;;;;;;5010456;28;20034;-54
2022/05/28 04:52:33;;;;;;;5.95;3.83;;;563.30;2432.00;;;;;;5010202;28;20056;-54
2022/05/28 04:54:59;;;;;;;9.13;4.10;;;563.70;2432.00;;;;;;5010694;28;20034;-54
2022/05/28 04:57:24;;;;;;;5.28;3.42;;;588.80;2432.00;;;;;;5014183;28;20034;-54
2022/05/28 04:59:51;;;;;;;5.65;3.17;;;589.20;2432.00;;;;;;5014383;28;20071;-54
2022/05/28 05:02:16;;;;;;;6.22;2.90;;;614.50;2432.00;;;;;;5014556;28;20029;-54
2022/05/28 05:04:42;;;;;;;4.93;3.70;;;614.80;2432.00;;;;;;5013916;28;20025;-54
2022/05/28 05:07:08;;;;;;;7.75;3.00;;;640.00;2432.00;;;;;;5013281;28;20041;-54
2022/05/28 05:09:34;;;;;;;4.13;3.08;;;640.60;2432.00;;;;;;5014029;28;20030;-54
2022/05/28 05:12:00;;;;;;;5.47;2.95;;;666.20;2278.40;;;;;;5014263;28;20030;-54
2022/05/28 05:14:26;;;;;;;3.60;2.95;;;691.30;2176.00;;;;;;5013953;28;20480;-55
2022/05/28 05:16:52;;;;;;;4.32;3.42;;;691.50;2099.20;;;;;;5013784;28;20104;-54
2022/05/28 05:19:18;;;;;;;4.00;3.22;;;691.40;2099.20;;;;;;5013264;28;20184;-54
2022/05/28 05:21:44;;;;;;;5.30;3.40;;;691.90;2048.00;;;;;;5013808;28;20105;-55
2022/05/28 05:24:10;;;;;;;7.63;3.28;;;717.70;1920.00;;;;;;5013754;28;20058;-55
2022/05/28 05:26:35;;;;;;;4.22;2.80;;;691.80;1971.20;;;;;;5013347;28;20580;-55
2022/05/28 05:29:01;;;;;;;3.97;2.75;;;666.50;2073.60;;;;;;5013477;28;20026;-55
2022/05/28 05:31:27;;;;;;;3.45;2.35;;;665.80;2176.00;;;;;;5014071;28;20029;-54
2022/05/28 05:33:52;;;;;;;3.92;2.55;;;640.60;2278.40;;;;;;5012571;28;20034;-54
2022/05/28 05:36:18;;;;;;;5.07;3.28;;;640.30;2329.60;;;;;;5013558;28;20076;-53
2022/05/28 05:38:44;;;;;;;4.13;2.83;;;640.00;2432.00;;;;;;5013188;28;20540;-54
2022/05/28 05:41:10;;;;;;;5.55;3.05;;;615.30;2432.00;;;;;;5022414;28;20036;-53
2022/05/28 05:43:36;;;;;;;5.32;3.38;;;640.00;2432.00;;;;;;5032908;28;20068;-54
2022/05/28 05:46:03;;;;;;;5.18;3.80;;;666.50;2252.80;;;;;;5033104;28;20072;-55
2022/05/28 05:48:30;;;;;;;5.30;3.75;;;716.90;2048.00;;;;;;5033288;28;20026;-53
2022/05/28 05:50:55;;;;;;;6.38;3.00;;;743.10;1843.20;;;;;;5033053;28;20640;-54
2022/05/28 05:53:21;;;;;;;4.63;3.72;;;768.10;1766.40;;;;;;5032770;28;20060;-55
2022/05/28 05:55:47;;;;;;;4.35;2.80;;;768.90;1689.60;;;;;;5033107;28;20037;-55
2022/05/28 05:58:13;;;;;;;4.22;3.53;;;768.20;1715.20;;;;;;5032477;28;20028;-54
2022/05/28 06:00:40;;;;;;;4.15;3.20;;;742.40;1843.20;;;;;;5033053;28;20037;-54
2022/05/28 06:03:06;;;;;;;5.05;2.90;;;717.20;1868.80;;;;;;5032644;28;20030;-55
2022/05/28 06:05:32;;;;;;;3.63;2.50;;;691.80;1920.00;;;;;;5032908;28;20029;-55
2022/05/28 06:07:58;;;;;;;3.20;2.15;;;666.00;2022.40;;;;;;5031791;28;20022;-55
2022/05/28 06:10:24;;;;;;;4.55;3.00;;;665.80;2048.00;;;;;;5032863;28;20109;-54
2022/05/28 06:12:50;;;;;;;4.93;2.35;;;640.60;2099.20;;;;;;5032461;28;20029;-54
2022/05/28 06:15:16;;;;;;;4.43;2.60;;;640.40;2073.60;;;;;;5032498;28;20033;-54
2022/05/28 06:17:42;;;;;;;4.32;2.58;;;615.30;2150.40;;;;;;5032118;28;20108;-55
2022/05/28 06:20:11;;;;;;;6.82;2.88;;;614.70;2380.80;;;;;;5032276;28;20047;-55
2022/05/28 06:22:36;;;;;;;4.38;2.80;;;589.70;2432.00;;;;;;5032607;28;20483;-55
2022/05/28 06:25:03;;;;;;;4.00;2.90;;;589.50;2432.00;;;;;;5031872;28;20049;-57
2022/05/28 06:27:29;;;;;;;4.25;2.95;;;589.60;2432.00;;;;;;5032638;28;20032;-55
2022/05/28 06:29:54;;;;;;;4.28;3.00;;;589.20;2432.00;;;;;;5032202;28;20025;-55
2022/05/28 06:32:20;;;;;;;8.27;4.32;;;588.80;2432.00;;;;;;5032202;28;20017;-54
2022/05/28 06:34:46;;;;;;;5.30;3.40;;;588.90;2432.00;;;;;;5032439;28;20567;-55
2022/05/28 06:37:15;;;;;;;5.38;3.30;;;588.80;2432.00;;;;;;4995878;28;20032;-55
2022/05/28 06:39:41;;;;;;;4.95;3.28;;;564.10;2432.00;;;;;;5012354;28;20044;-56
2022/05/28 06:42:08;;;;;;;6.53;3.35;;;564.10;2432.00;;;;;;5012291;28;20018;-54
2022/05/28 06:44:34;;;;;;;9.95;7.00;;;564.00;2432.00;;;;;;5012246;28;20056;-55
2022/05/28 06:46:59;;;;;;;9.18;5.63;;;563.90;2432.00;;;;;;5011969;28;20061;-55
2022/05/28 06:49:25;;;;;;;18.63;11.57;;;563.90;2432.00;;;;;;5012197;28;20041;-55
2022/05/28 06:51:51;;;;;;;9.52;7.28;;;563.60;2432.00;;;;;;5012077;28;20381;-56
2022/05/28 06:54:17;;;;;;;6.43;4.63;;;563.60;2432.00;;;;;;5011820;28;20108;-54
2022/05/28 06:56:43;;;;;;;6.30;4.10;;;563.60;2432.00;;;;;;5011891;28;20030;-54
2022/05/28 06:59:09;;;;;;;5.80;4.13;;;563.60;2432.00;;;;;;4994034;28;20439;-53
2022/05/28 07:01:35;;;;;;;6.40;4.35;;;563.60;2432.00;;;;;;5011672;28;20017;-55
2022/05/28 07:04:01;;;;;;;7.13;4.85;;;563.40;2432.00;;;;;;5011862;28;20025;-56
2022/05/28 07:06:29;;;;;;;6.70;4.75;;;563.50;2432.00;;;;;;5010712;28;20041;-54
2022/05/28 07:08:55;;;;;;;5.88;4.15;;;563.50;2432.00;;;;;;5011922;28;20026;-55
2022/05/28 07:11:21;;;;;;;6.22;3.63;;;563.40;2432.00;;;;;;5011801;28;20033;-55
2022/05/28 07:13:47;;;;;;;5.93;4.13;;;538.50;2406.40;;;;;;5011648;28;20071;-54
2022/05/28 07:16:12;;;;;;;9.15;5.43;;;538.50;2406.40;;;;;;5011550;28;20025;-54
2022/05/28 07:18:40;;;;;;;8.82;4.72;;;563.20;2432.00;;;;;;5005559;28;20069;-55
2022/05/28 07:21:07;;;;;;;10.20;4.78;;;563.20;2432.00;;;;;;5011279;28;20033;-55
2022/05/28 07:23:33;;;;;;;7.18;4.30;;;563.20;2432.00;;;;;;5011212;28;20075;-53
2022/05/28 07:26:10;;;;;;;7.20;4.72;;;538.50;2406.40;;;;;;5011535;28;20056;-56
2022/05/28 07:28:37;;;;;;;6.65;4.28;;;563.20;2432.00;;;;;;5011490;28;20427;-55
2022/05/28 07:31:05;;;;;;;5.15;3.53;;;563.40;2432.00;;;;;;5010209;28;20026;-54
2022/05/28 07:33:39;;;;;;;7.72;4.15;;;563.50;2432.00;;;;;;5011353;28;20472;-56
2022/05/28 07:36:07;;;;;;;7.50;4.25;;;563.60;2432.00;;;;;;5011005;28;20038;-55
2022/05/28 07:38:34;;;;;;;5.82;4.15;;;563.50;2432.00;;;;;;5011110;28;20029;-54
2022/05/28 07:41:04;;;;;;;6.30;3.70;;;563.30;2432.00;;;;;;5011556;28;20029;-56
2022/05/28 07:43:30;;;;;;;5.63;4.05;;;563.30;2432.00;;;;;;5011381;28;20022;-55
2022/05/28 07:45:56;;;;;;;5.95;4.05;;;563.30;2432.00;;;;;;5011365;28;20025;-54
2022/05/28 07:48:22;;;;;;;6.03;3.85;;;563.40;2432.00;;;;;;5011129;28;20075;-55
2022/05/28 07:50:48;;;;;;;6.20;4.13;;;538.50;2406.40;;;;;;5011248;28;20083;-55
2022/05/28 07:53:14;;;;;;;7.65;4.03;;;538.50;2406.40;;;;;;5011012;28;20029;-54
2022/05/28 07:55:39;;;;;;;4.32;3.60;;;538.30;2406.40;;;;;;5010968;28;20503;-55
2022/05/28 07:58:16;;;;;;;5.53;3.63;;;538.30;2406.40;;;;;;5010610;28;20064;-54
2022/05/28 08:00:47;;;;;;;4.72;3.40;;;538.50;2406.40;;;;;;5011009;28;20038;-55
2022/05/28 08:03:15;;;;;;;5.55;3.80;;;538.50;2406.40;;;;;;5010785;28;20487;-55
2022/05/28 08:05:44;;;;;;;6.03;4.03;;;538.50;2406.40;;;;;;5010992;28;20040;-55
2022/05/28 08:08:11;;;;;;;5.72;4.20;;;538.50;2406.40;;;;;;5010857;28;20105;-55
2022/05/28 08:10:37;;;;;;;9.57;4.40;;;538.50;2406.40;;;;;;5010951;28;20100;-54
2022/05/28 08:13:06;;;;;;;5.13;3.80;;;538.30;2406.40;;;;;;5018511;28;20026;-55
2022/05/28 08:15:34;;;;;;;5.88;3.78;;;538.30;2406.40;;;;;;5010651;28;20049;-55
2022/05/28 08:18:00;;;;;;;7.40;4.63;;;538.20;2406.40;;;;;;5010733;28;20109;-53
2022/05/28 08:23:10;;;;;;;5.95;4.35;;;538.20;2406.40;;;;;;5010517;28;20036;-54
2022/05/28 08:25:39;;;;;;;5.22;4.03;;;538.10;2406.40;;;;;;5010172;28;20129;-55
2022/05/28 08:28:08;;;;;;;7.25;4.18;;;538.10;2406.40;;;;;;5004474;28;20089;-54
2022/05/28 08:30:35;;;;;;;9.57;4.40;;;538.00;2406.40;;;;;;4991232;28;20062;-55
2022/05/28 08:33:02;;;;;;;7.25;4.68;;;538.00;2406.40;;;;;;4992972;28;20026;-56
2022/05/28 08:35:27;;;;;;;7.70;4.18;;;537.90;2406.40;;;;;;4999613;28;20018;-54
2022/05/28 08:37:53;;;;;;;7.63;4.40;;;537.80;2406.40;;;;;;5010226;28;20022;-55
2022/05/28 08:40:19;;;;;;;6.70;4.57;;;537.80;2406.40;;;;;;5008431;28;20436;-55
2022/05/28 08:42:45;;;;;;;7.22;4.68;;;538.00;2406.40;;;;;;5009539;28;20460;-54
2022/05/28 08:45:13;;;;;;;6.25;4.47;;;538.20;2406.40;;;;;;5010337;28;20973;-55
2022/05/28 08:47:44;;;;;;;6.53;4.53;;;538.20;2406.40;;;;;;5004474;28;20026;-56
2022/05/28 08:50:11;;;;;;;7.25;4.30;;;538.40;2406.40;;;;;;5003422;28;20069;-55
2022/05/28 08:53:03;;;;;;;7.43;5.25;;;538.40;2406.40;;;;;;5001902;28;20026;-56
2022/05/28 08:55:43;;;;;;;6.97;4.90;;;538.40;2406.40;;;;;;5007991;28;20030;-55
2022/05/28 08:58:14;;;;;;;6.50;4.95;;;538.30;2406.40;;;;;;5010271;28;20411;-55
2022/05/28 09:00:48;;;;;;;7.45;5.30;;;538.40;2406.40;;;;;;5010296;28;20034;-55
2022/05/28 09:03:30;;;;;;;6.18;4.20;;;538.50;2406.40;;;;;;5010082;28;20037;-55
2022/05/28 09:06:07;;;;;;;5.72;4.03;;;538.50;2406.40;;;;;;5010402;28;20022;-54
2022/05/28 09:08:40;;;;;;;6.05;3.60;;;563.30;2432.00;;;;;;5009926;28;20026;-54
2022/05/28 09:11:11;;;;;;;7.20;3.97;;;563.20;2432.00;;;;;;5009963;28;20022;-55
2022/05/28 09:13:47;;;;;;;5.60;4.28;;;563.40;2432.00;;;;;;5009977;28;20034;-55
2022/05/28 09:16:35;;;;;;;7.95;4.18;;;538.50;2406.40;;;;;;5009847;28;20029;-55
2022/05/28 09:19:11;;;;;;;4.07;3.20;;;563.20;2432.00;;;;;;5009816;28;20425;-56
2022/05/28 09:21:38;;;;;;;7.45;3.90;;;563.50;2432.00;;;;;;5010424;28;20041;-53
2022/05/28 09:24:05;;;;;;;8.32;4.20;;;538.50;2406.40;;;;;;5009793;28;20141;-55
2022/05/28 09:26:45;;;;;;;5.38;4.05;;;538.20;2406.40;;;;;;5009535;28;20115;-55
2022/05/28 09:29:23;;;;;;;5.20;3.60;;;538.30;2406.40;;;;;;5007442;28;20438;-56
2022/05/28 09:32:03;;;;;;;5.30;3.45;;;538.00;2406.40;;;;;;5009955;28;20022;-54
2022/05/28 09:34:56;;;;;;;6.28;3.72;;;537.80;2406.40;;;;;;5010284;28;20041;-55
2022/05/28 09:37:46;;;;;;;5.55;3.35;;;537.70;2406.40;;;;;;5009769;28;20032;-55
2022/05/28 09:40:25;;;;;;;7.10;3.83;;;537.60;2406.40;;;;;;5009623;28;20040;-54
2022/05/28 09:43:36;;;;;;;4.18;3.25;;;537.70;2406.40;;;;;;5015452;28;20029;-54
2022/05/28 09:46:26;;;;;;;6.53;3.55;;;537.80;2406.40;;;;;;4915201;29;20111;-65
2022/05/28 09:49:12;;;;;;;6.90;3.22;;;512.80;2380.80;;;;;;4917886;29;20104;-66
2022/05/28 09:51:38;;;;;;;4.60;3.03;;;512.80;2380.80;;;;;;4917887;29;20024;-63
2022/05/28 09:54:20;;;;;;;7.55;4.82;;;512.90;2380.80;;;;;;4917823;29;20028;-64
2022/05/28 09:56:58;;;;;;;7.55;3.67;;;537.60;2406.40;;;;;;4918230;29;20442;-68
2022/05/28 10:05:42;;;;;;;4.32;2.58;;;537.60;2406.40;;;;;;4917989;29;20131;-67
2022/05/28 10:08:12;;;;;;;4.90;2.78;;;;;;;;;;4917564;29;20051;-67
2022/05/28 10:10:40;;;;;;;6.20;3.13;;;;;;;;;;4917453;29;20447;-68
2022/05/28 10:13:09;;;;;;;3.80;2.42;;;;;;;;;;4917350;29;20046;-68
2022/05/28 10:18:40;;;;;;;9.70;3.72;;;;;;;;;;4917597;29;20130;-57
2022/05/28 10:21:17;;;;;;;7.00;3.92;;;;;;;;;;4954245;28;20041;-56
2022/05/28 10:23:47;;;;;;;5.95;3.65;;;;;;;;;;5015587;28;20022;-56
2022/05/28 10:26:19;;;;;;;6.85;3.78;;;;;;;;;;5015281;28;20062;-57
2022/05/28 10:28:47;;;;;;;7.03;4.07;;;;;;;;;;5015859;28;20456;-57
2022/05/28 10:34:34;;;;;;;9.55;3.75;;;;;;;;;;5015389;28;20550;-57
2022/05/28 10:37:00;;;;;;;;;;;;;;;;;;5016326;28;20022;-57
2022/05/28 10:39:26;;;;;;;4.28;2.90;;;512.70;2380.80;;;;;;5015726;28;19917;-57
2022/05/28 10:41:53;;;;;;;5.63;3.58;;;512.50;2380.80;;;;;;5015757;28;20128;-57
2022/05/28 10:44:19;;;;;;;4.93;3.08;;;512.50;2380.80;;;;;;5015191;28;20083;-57
2022/05/28 10:46:55;;;;;;;10.48;3.85;;;;;;;;;;5015421;28;20022;-57
2022/05/28 10:49:21;;;;;;;5.70;3.45;;;512.10;2380.80;;;;;;5014987;28;20026;-58
2022/05/28 10:51:50;;;;;;;4.72;3.13;;;512.00;2380.80;;;;;;5015253;28;20025;-57
2022/05/28 10:54:38;;;;;;;4.90;3.03;;;512.20;2380.80;;;;;;5014377;28;20030;-57
2022/05/28 10:57:41;;;;;;;4.55;2.80;;;512.20;2380.80;;;;;;4916600;29;20270;-56
2022/05/28 11:00:14;;;;;;;4.57;2.90;;;512.20;2380.80;;;;;;4916339;29;20051;-56
2022/05/28 11:02:45;;;;;;;6.05;3.58;;;512.40;2380.80;;;;;;4916620;29;20032;-56
2022/05/28 11:05:50;;;;;;;5.25;3.53;;;512.60;2380.80;;;;;;4916417;29;20082;-55
2022/05/28 11:08:24;;;;;;;5.97;3.70;;;512.30;2380.80;;;;;;4916362;29;20625;-58
2022/05/28 11:11:12;;;;;;;7.22;4.60;;;512.10;2380.80;;;;;;4916203;29;20032;-58
2022/05/28 11:13:57;;;;;;;6.35;4.10;;;487.00;2380.80;;;;;;4915895;29;20103;-58
2022/05/28 11:16:51;;;;;;;6.38;3.90;;;486.90;2380.80;;;;;;4916091;29;20032;-57
2022/05/28 11:19:29;;;;;;;5.03;4.10;;;486.70;2380.80;;;;;;4915952;29;20047;-58
2022/05/28 11:22:07;;;;;;;6.88;3.72;;;486.50;2380.80;;;;;;4916144;29;20032;-56
2022/05/28 11:24:44;;;;;;;5.60;3.40;;;486.40;2380.80;;;;;;4915891;29;20122;-58
2022/05/28 11:27:49;;;;;;;5.30;2.83;;;486.50;2380.80;;;;;;4915821;29;20614;-57
2022/05/28 11:30:55;;;;;;;5.75;3.10;;;486.60;2380.80;;;;;;4915457;29;20641;-57
2022/05/28 11:33:37;;;;;;;5.38;3.20;;;486.40;2380.80;;;;;;4934012;28;20037;-58
2022/05/28 11:36:38;;;;;;;5.20;3.28;;;486.40;2380.80;;;;;;5014771;28;20018;-58
2022/05/28 11:39:16;;;;;;;6.70;3.72;;;486.50;2380.80;;;;;;5013985;28;20132;-58
2022/05/28 11:42:31;;;;;;;8.63;3.53;;;461.60;2380.80;;;;;;5010995;28;20026;-58
2022/05/28 11:44:59;;;;;;;7.38;3.17;;;461.70;2380.80;;;;;;4987488;28;20468;-56
2022/05/28 11:47:48;;;;;;;6.18;3.58;;;461.50;2380.80;;;;;;5009539;28;20036;-59
2022/05/28 11:53:13;;;;;;;5.78;3.15;;;461.70;2380.80;;;;;;5009460;28;20850;-58
2022/05/28 11:55:42;;;;;;;5.30;3.22;;;461.70;2380.80;;;;;;5007997;28;20060;-57
2022/05/28 11:58:20;;;;;;;4.43;3.00;;;461.30;2380.80;;;;;;5009582;28;20037;-58
2022/05/28 12:00:54;;;;;;;4.10;2.38;;;461.30;2380.80;;;;;;5007980;28;20081;-56
2022/05/28 12:03:29;;;;;;;4.18;2.65;;;461.20;2380.80;;;;;;4992181;28;20076;-59
2022/05/28 12:06:04;;;;;;;5.65;2.50;;;461.10;2380.80;;;;;;5008203;28;20036;-58
2022/05/28 12:08:42;;;;;;;5.68;3.08;;;461.10;2380.80;;;;;;5009478;28;20029;-58
2022/05/28 12:11:20;;;;;;;4.15;2.40;;;461.20;2380.80;;;;;;5008921;28;20541;-59
2022/05/28 12:14:02;;;;;;;4.03;2.10;;;461.20;2380.80;;;;;;5008917;28;20030;-58
2022/05/28 12:16:37;;;;;;;3.00;2.00;;;461.00;2380.80;;;;;;5009039;28;20751;-57
2022/05/28 12:19:22;;;;;;;4.15;2.50;;;460.80;2380.80;;;;;;5009045;28;20415;-58
2022/05/28 12:21:48;;;;;;;4.78;2.38;;;460.80;2380.80;;;;;;4999845;28;20044;-58
2022/05/28 12:24:14;;;;;;;3.30;1.95;;;436.10;2355.20;;;;;;5008493;28;20026;-58
2022/05/28 12:29:30;;;;;;;3.10;1.92;;;460.90;2380.80;;;;;;4989839;28;20056;-56
2022/05/28 12:32:08;;;;;;;4.20;1.40;;;460.90;2380.80;;;;;;4989369;28;20376;-57
2022/05/28 12:34:37;;;;;;;3.33;1.70;;;460.90;2380.80;;;;;;4989331;28;20034;-59
2022/05/28 12:37:09;;;;;;;3.10;1.58;;;460.90;2380.80;;;;;;4996430;28;20027;-59
2022/05/28 12:39:44;;;;;;;3.17;1.70;;;460.90;2380.80;;;;;;4995563;28;20044;-57
2022/05/28 12:42:27;;;;;;;4.28;1.90;;;460.80;2380.80;;;;;;4993933;28;20485;-59
2022/05/28 12:44:53;;;;;;;3.55;1.60;;;460.80;2380.80;;;;;;5021495;28;20033;-57
2022/05/28 12:47:26;;;;;;;2.80;1.65;;;460.80;2380.80;;;;;;5011311;28;20041;-57
2022/05/28 12:50:21;;;;;;;2.13;1.60;;;460.80;2380.80;;;;;;5008242;28;20026;-57
2022/05/28 12:53:04;;;;;;;2.65;1.33;;;460.80;2380.80;;;;;;4987307;28;20547;-57
2022/05/28 12:55:32;;;;;;;3.08;1.70;;;436.10;2355.20;;;;;;5008935;28;20044;-56
2022/05/28 12:58:05;;;;;;;3.95;1.42;;;436.00;2355.20;;;;;;5002587;28;20018;-57
2022/05/28 13:00:36;;;;;;;;;;;436.00;2355.20;;;;;;5002553;28;20037;-59
2022/05/28 13:03:06;;;;;;;2.67;1.65;;;435.90;2355.20;;;;;;5008228;28;19905;-58